sensor_id;sensor_type;location;lat;lon;timestamp;P1;durP1;ratioP1;P2;durP2;ratioP2
22234;SDS011;11286;45.596;5.284;2023-04-02T00:01:03;8.90;;;8.10;;
22234;SDS011;11286;45.596;5.284;2023-04-02T00:08:57;10.23;;;9.13;;
22234;SDS011;11286;45.596;5.284;2023-04-02T00:14:00;10.98;;;8.98;;
22234;SDS011;11286;45.596;5.284;2023-04-02T00:16:27;9.73;;;8.82;;
22234;SDS011;11286;45.596;5.284;2023-04-02T00:18:54;11.15;;;8.65;;
22234;SDS011;11286;45.596;5.284;2023-04-02T00:21:28;9.77;;;8.10;;
22234;SDS011;11286;45.596;5.284;2023-04-02T00:23:58;9.25;;;8.35;;
22234;SDS011;11286;45.596;5.284;2023-04-02T00:26:32;9.90;;;8.82;;
22234;SDS011;11286;45.596;5.284;2023-04-02T00:29:01;10.10;;;8.93;;
22234;SDS011;11286;45.596;5.284;2023-04-02T00:31:28;10.18;;;8.90;;
22234;SDS011;11286;45.596;5.284;2023-04-02T00:33:56;10.32;;;9.32;;
22234;SDS011;11286;45.596;5.284;2023-04-02T00:36:23;10.50;;;9.40;;
22234;SDS011;11286;45.596;5.284;2023-04-02T00:38:54;10.98;;;9.88;;
22234;SDS011;11286;45.596;5.284;2023-04-02T00:41:23;12.30;;;11.07;;
22234;SDS011;11286;45.596;5.284;2023-04-02T00:43:54;11.05;;;10.00;;
22234;SDS011;11286;45.596;5.284;2023-04-02T00:46:22;10.70;;;9.70;;
22234;SDS011;11286;45.596;5.284;2023-04-02T00:49:03;10.38;;;9.38;;
22234;SDS011;11286;45.596;5.284;2023-04-02T00:52:07;11.00;;;9.85;;
22234;SDS011;11286;45.596;5.284;2023-04-02T00:54:35;13.13;;;10.88;;
22234;SDS011;11286;45.596;5.284;2023-04-02T00:57:10;10.55;;;9.45;;
22234;SDS011;11286;45.596;5.284;2023-04-02T00:59:59;10.40;;;9.40;;
22234;SDS011;11286;45.596;5.284;2023-04-02T01:02:39;11.52;;;9.80;;
22234;SDS011;11286;45.596;5.284;2023-04-02T01:07:46;10.13;;;8.88;;
22234;SDS011;11286;45.596;5.284;2023-04-02T01:15:52;9.85;;;8.95;;
22234;SDS011;11286;45.596;5.284;2023-04-02T01:18:36;10.15;;;9.15;;
22234;SDS011;11286;45.596;5.284;2023-04-02T01:24:05;10.98;;;9.20;;
22234;SDS011;11286;45.596;5.284;2023-04-02T01:27:11;10.95;;;9.90;;
22234;SDS011;11286;45.596;5.284;2023-04-02T01:29:52;12.05;;;10.05;;
22234;SDS011;11286;45.596;5.284;2023-04-02T01:32:20;11.10;;;9.95;;
22234;SDS011;11286;45.596;5.284;2023-04-02T01:34:49;11.18;;;10.10;;
22234;SDS011;11286;45.596;5.284;2023-04-02T01:45:18;13.77;;;10.50;;
22234;SDS011;11286;45.596;5.284;2023-04-02T01:47:45;12.20;;;10.93;;
22234;SDS011;11286;45.596;5.284;2023-04-02T01:52:42;11.93;;;10.68;;
22234;SDS011;11286;45.596;5.284;2023-04-02T01:55:11;11.75;;;10.43;;
22234;SDS011;11286;45.596;5.284;2023-04-02T01:57:42;10.93;;;9.82;;
22234;SDS011;11286;45.596;5.284;2023-04-02T02:00:14;11.32;;;10.23;;
22234;SDS011;11286;45.596;5.284;2023-04-02T02:02:41;11.05;;;10.05;;
22234;SDS011;11286;45.596;5.284;2023-04-02T02:05:13;12.52;;;10.82;;
22234;SDS011;11286;45.596;5.284;2023-04-02T02:07:40;11.18;;;10.00;;
22234;SDS011;11286;45.596;5.284;2023-04-02T02:10:07;11.35;;;10.25;;
22234;SDS011;11286;45.596;5.284;2023-04-02T02:12:45;11.82;;;10.00;;
22234;SDS011;11286;45.596;5.284;2023-04-02T02:15:15;11.40;;;10.23;;
22234;SDS011;11286;45.596;5.284;2023-04-02T02:17:43;10.57;;;9.57;;
22234;SDS011;11286;45.596;5.284;2023-04-02T02:20:09;11.25;;;9.73;;
22234;SDS011;11286;45.596;5.284;2023-04-02T02:22:46;11.07;;;9.98;;
22234;SDS011;11286;45.596;5.284;2023-04-02T02:25:15;12.25;;;11.05;;
22234;SDS011;11286;45.596;5.284;2023-04-02T02:32:59;11.48;;;10.38;;
22234;SDS011;11286;45.596;5.284;2023-04-02T02:35:42;11.52;;;10.40;;
22234;SDS011;11286;45.596;5.284;2023-04-02T02:43:47;12.77;;;11.35;;
22234;SDS011;11286;45.596;5.284;2023-04-02T02:46:28;13.43;;;11.30;;
22234;SDS011;11286;45.596;5.284;2023-04-02T02:48:55;13.18;;;11.85;;
22234;SDS011;11286;45.596;5.284;2023-04-02T02:51:25;12.45;;;11.25;;
22234;SDS011;11286;45.596;5.284;2023-04-02T02:53:55;13.13;;;11.63;;
22234;SDS011;11286;45.596;5.284;2023-04-02T02:56:25;13.45;;;12.07;;
22234;SDS011;11286;45.596;5.284;2023-04-02T02:58:53;13.10;;;11.68;;
22234;SDS011;11286;45.596;5.284;2023-04-02T03:01:19;14.20;;;12.77;;
22234;SDS011;11286;45.596;5.284;2023-04-02T03:03:45;14.02;;;12.57;;
22234;SDS011;11286;45.596;5.284;2023-04-02T03:06:13;14.60;;;12.82;;
22234;SDS011;11286;45.596;5.284;2023-04-02T03:11:25;14.32;;;12.82;;
22234;SDS011;11286;45.596;5.284;2023-04-02T03:14:09;14.93;;;13.40;;
22234;SDS011;11286;45.596;5.284;2023-04-02T03:16:41;14.50;;;13.07;;
22234;SDS011;11286;45.596;5.284;2023-04-02T03:22:17;14.10;;;12.77;;
22234;SDS011;11286;45.596;5.284;2023-04-02T03:28:02;15.60;;;13.80;;
22234;SDS011;11286;45.596;5.284;2023-04-02T03:30:43;14.50;;;13.05;;
22234;SDS011;11286;45.596;5.284;2023-04-02T03:33:16;14.52;;;13.02;;
22234;SDS011;11286;45.596;5.284;2023-04-02T03:36:02;15.68;;;13.88;;
22234;SDS011;11286;45.596;5.284;2023-04-02T03:39:00;16.08;;;13.90;;
22234;SDS011;11286;45.596;5.284;2023-04-02T03:41:51;15.10;;;13.60;;
22234;SDS011;11286;45.596;5.284;2023-04-02T03:44:41;15.32;;;13.15;;
22234;SDS011;11286;45.596;5.284;2023-04-02T03:47:11;15.10;;;13.55;;
22234;SDS011;11286;45.596;5.284;2023-04-02T03:52:32;15.30;;;13.70;;
22234;SDS011;11286;45.596;5.284;2023-04-02T03:55:01;14.40;;;12.90;;
22234;SDS011;11286;45.596;5.284;2023-04-02T03:57:46;15.75;;;14.20;;
22234;SDS011;11286;45.596;5.284;2023-04-02T04:03:12;15.50;;;13.90;;
22234;SDS011;11286;45.596;5.284;2023-04-02T04:05:48;15.02;;;13.30;;
22234;SDS011;11286;45.596;5.284;2023-04-02T04:08:16;15.38;;;12.93;;
22234;SDS011;11286;45.596;5.284;2023-04-02T04:10:49;14.85;;;13.23;;
22234;SDS011;11286;45.596;5.284;2023-04-02T04:13:27;13.48;;;12.18;;
22234;SDS011;11286;45.596;5.284;2023-04-02T04:19:31;13.68;;;11.85;;
22234;SDS011;11286;45.596;5.284;2023-04-02T04:22:24;14.10;;;12.60;;
22234;SDS011;11286;45.596;5.284;2023-04-02T04:25:04;14.30;;;12.85;;
22234;SDS011;11286;45.596;5.284;2023-04-02T04:28:26;14.05;;;12.55;;
22234;SDS011;11286;45.596;5.284;2023-04-02T04:30:50;14.13;;;12.60;;
22234;SDS011;11286;45.596;5.284;2023-04-02T04:33:27;13.88;;;12.48;;
22234;SDS011;11286;45.596;5.284;2023-04-02T04:36:03;14.60;;;12.80;;
22234;SDS011;11286;45.596;5.284;2023-04-02T04:38:34;13.27;;;12.07;;
22234;SDS011;11286;45.596;5.284;2023-04-02T04:44:12;14.27;;;12.77;;
22234;SDS011;11286;45.596;5.284;2023-04-02T04:46:37;15.40;;;12.23;;
22234;SDS011;11286;45.596;5.284;2023-04-02T04:51:53;13.55;;;12.15;;
22234;SDS011;11286;45.596;5.284;2023-04-02T04:54:25;15.13;;;13.02;;
22234;SDS011;11286;45.596;5.284;2023-04-02T04:56:55;13.52;;;12.13;;
22234;SDS011;11286;45.596;5.284;2023-04-02T04:59:27;14.32;;;12.82;;
22234;SDS011;11286;45.596;5.284;2023-04-02T05:02:13;13.52;;;12.07;;
22234;SDS011;11286;45.596;5.284;2023-04-02T05:04:47;13.88;;;11.63;;
22234;SDS011;11286;45.596;5.284;2023-04-02T05:12:31;14.20;;;12.07;;
22234;SDS011;11286;45.596;5.284;2023-04-02T05:15:15;13.43;;;12.00;;
22234;SDS011;11286;45.596;5.284;2023-04-02T05:23:28;13.15;;;11.77;;
22234;SDS011;11286;45.596;5.284;2023-04-02T05:28:46;12.50;;;11.10;;
22234;SDS011;11286;45.596;5.284;2023-04-02T05:31:19;12.40;;;10.93;;
22234;SDS011;11286;45.596;5.284;2023-04-02T05:33:52;12.38;;;11.10;;
22234;SDS011;11286;45.596;5.284;2023-04-02T05:36:26;12.95;;;11.18;;
22234;SDS011;11286;45.596;5.284;2023-04-02T05:38:53;12.77;;;10.48;;
22234;SDS011;11286;45.596;5.284;2023-04-02T05:44:17;13.05;;;10.38;;
22234;SDS011;11286;45.596;5.284;2023-04-02T05:47:00;13.25;;;11.95;;
22234;SDS011;11286;45.596;5.284;2023-04-02T05:49:39;13.43;;;11.95;;
22234;SDS011;11286;45.596;5.284;2023-04-02T05:52:11;11.68;;;10.57;;
22234;SDS011;11286;45.596;5.284;2023-04-02T05:54:46;11.73;;;10.52;;
22234;SDS011;11286;45.596;5.284;2023-04-02T05:57:22;11.52;;;9.98;;
22234;SDS011;11286;45.596;5.284;2023-04-02T06:00:04;8.82;;;7.93;;
22234;SDS011;11286;45.596;5.284;2023-04-02T06:03:37;9.82;;;8.82;;
22234;SDS011;11286;45.596;5.284;2023-04-02T06:05:35;10.50;;;8.93;;
22234;SDS011;11286;45.596;5.284;2023-04-02T06:10:36;9.98;;;8.40;;
22234;SDS011;11286;45.596;5.284;2023-04-02T06:13:17;7.90;;;7.07;;
22234;SDS011;11286;45.596;5.284;2023-04-02T06:15:44;5.53;;;4.90;;
22234;SDS011;11286;45.596;5.284;2023-04-02T06:20:42;8.23;;;7.25;;
22234;SDS011;11286;45.596;5.284;2023-04-02T06:23:13;8.95;;;7.55;;
22234;SDS011;11286;45.596;5.284;2023-04-02T06:28:49;8.40;;;7.47;;
22234;SDS011;11286;45.596;5.284;2023-04-02T06:34:16;6.10;;;5.20;;
22234;SDS011;11286;45.596;5.284;2023-04-02T06:36:43;4.95;;;4.10;;
22234;SDS011;11286;45.596;5.284;2023-04-02T06:39:22;5.95;;;4.60;;
22234;SDS011;11286;45.596;5.284;2023-04-02T06:42:00;5.95;;;4.10;;
22234;SDS011;11286;45.596;5.284;2023-04-02T06:44:32;9.98;;;4.68;;
22234;SDS011;11286;45.596;5.284;2023-04-02T06:47:05;5.18;;;4.03;;
22234;SDS011;11286;45.596;5.284;2023-04-02T06:49:44;4.80;;;3.60;;
22234;SDS011;11286;45.596;5.284;2023-04-02T06:52:28;6.03;;;3.20;;
22234;SDS011;11286;45.596;5.284;2023-04-02T06:54:58;3.35;;;2.80;;
22234;SDS011;11286;45.596;5.284;2023-04-02T06:57:24;4.32;;;2.92;;
22234;SDS011;11286;45.596;5.284;2023-04-02T06:59:50;5.57;;;2.92;;
22234;SDS011;11286;45.596;5.284;2023-04-02T07:02:35;3.67;;;2.97;;
22234;SDS011;11286;45.596;5.284;2023-04-02T07:05:05;4.60;;;3.40;;
22234;SDS011;11286;45.596;5.284;2023-04-02T07:07:33;4.72;;;2.78;;
22234;SDS011;11286;45.596;5.284;2023-04-02T07:09:58;3.65;;;2.53;;
22234;SDS011;11286;45.596;5.284;2023-04-02T07:12:24;5.40;;;3.00;;
22234;SDS011;11286;45.596;5.284;2023-04-02T07:14:50;3.85;;;2.45;;
22234;SDS011;11286;45.596;5.284;2023-04-02T07:17:16;4.43;;;2.92;;
22234;SDS011;11286;45.596;5.284;2023-04-02T07:19:43;3.03;;;2.53;;
22234;SDS011;11286;45.596;5.284;2023-04-02T07:22:13;3.42;;;3.13;;
22234;SDS011;11286;45.596;5.284;2023-04-02T07:24:39;25.50;;;20.05;;
22234;SDS011;11286;45.596;5.284;2023-04-02T07:27:05;5.15;;;3.08;;
22234;SDS011;11286;45.596;5.284;2023-04-02T07:29:30;4.82;;;2.80;;
22234;SDS011;11286;45.596;5.284;2023-04-02T07:31:56;5.13;;;3.88;;
22234;SDS011;11286;45.596;5.284;2023-04-02T07:34:22;8.95;;;5.97;;
22234;SDS011;11286;45.596;5.284;2023-04-02T07:36:47;8.05;;;6.65;;
22234;SDS011;11286;45.596;5.284;2023-04-02T07:39:13;4.82;;;4.00;;
22234;SDS011;11286;45.596;5.284;2023-04-02T07:41:56;3.92;;;3.33;;
22234;SDS011;11286;45.596;5.284;2023-04-02T07:44:23;4.82;;;3.10;;
22234;SDS011;11286;45.596;5.284;2023-04-02T07:46:48;5.18;;;3.40;;
22234;SDS011;11286;45.596;5.284;2023-04-02T07:49:14;9.55;;;5.65;;
22234;SDS011;11286;45.596;5.284;2023-04-02T07:51:40;4.05;;;3.13;;
22234;SDS011;11286;45.596;5.284;2023-04-02T07:54:05;2.63;;;2.40;;
22234;SDS011;11286;45.596;5.284;2023-04-02T07:56:34;3.40;;;3.10;;
22234;SDS011;11286;45.596;5.284;2023-04-02T07:59:00;6.28;;;5.70;;
22234;SDS011;11286;45.596;5.284;2023-04-02T08:01:26;3.38;;;3.00;;
22234;SDS011;11286;45.596;5.284;2023-04-02T08:03:53;3.13;;;2.72;;
22234;SDS011;11286;45.596;5.284;2023-04-02T08:06:20;4.20;;;2.50;;
22234;SDS011;11286;45.596;5.284;2023-04-02T08:08:47;2.85;;;2.05;;
22234;SDS011;11286;45.596;5.284;2023-04-02T08:11:13;4.13;;;3.72;;
22234;SDS011;11286;45.596;5.284;2023-04-02T08:13:39;2.83;;;2.35;;
22234;SDS011;11286;45.596;5.284;2023-04-02T08:16:05;4.10;;;3.70;;
22234;SDS011;11286;45.596;5.284;2023-04-02T08:18:32;2.88;;;2.58;;
22234;SDS011;11286;45.596;5.284;2023-04-02T08:20:58;3.20;;;2.55;;
22234;SDS011;11286;45.596;5.284;2023-04-02T08:23:24;4.28;;;2.97;;
22234;SDS011;11286;45.596;5.284;2023-04-02T08:25:51;3.15;;;2.58;;
22234;SDS011;11286;45.596;5.284;2023-04-02T08:28:17;2.85;;;2.65;;
22234;SDS011;11286;45.596;5.284;2023-04-02T08:30:45;3.08;;;1.92;;
22234;SDS011;11286;45.596;5.284;2023-04-02T08:33:13;2.38;;;2.10;;
22234;SDS011;11286;45.596;5.284;2023-04-02T08:35:39;2.40;;;2.20;;
22234;SDS011;11286;45.596;5.284;2023-04-02T08:38:04;2.80;;;2.50;;
22234;SDS011;11286;45.596;5.284;2023-04-02T08:40:40;2.55;;;2.35;;
22234;SDS011;11286;45.596;5.284;2023-04-02T08:43:16;2.85;;;2.55;;
22234;SDS011;11286;45.596;5.284;2023-04-02T08:46:04;2.05;;;1.60;;
22234;SDS011;11286;45.596;5.284;2023-04-02T08:48:54;2.60;;;1.38;;
22234;SDS011;11286;45.596;5.284;2023-04-02T08:51:24;1.30;;;1.10;;
22234;SDS011;11286;45.596;5.284;2023-04-02T08:53:53;1.63;;;1.35;;
22234;SDS011;11286;45.596;5.284;2023-04-02T08:56:38;1.90;;;1.40;;
22234;SDS011;11286;45.596;5.284;2023-04-02T08:59:23;2.92;;;1.45;;
22234;SDS011;11286;45.596;5.284;2023-04-02T09:04:36;1.80;;;1.50;;
22234;SDS011;11286;45.596;5.284;2023-04-02T09:07:02;2.10;;;1.70;;
22234;SDS011;11286;45.596;5.284;2023-04-02T09:09:28;3.00;;;1.88;;
22234;SDS011;11286;45.596;5.284;2023-04-02T09:12:01;3.13;;;1.83;;
22234;SDS011;11286;45.596;5.284;2023-04-02T09:17:19;2.70;;;1.88;;
22234;SDS011;11286;45.596;5.284;2023-04-02T09:19:56;2.20;;;2.00;;
22234;SDS011;11286;45.596;5.284;2023-04-02T09:22:30;2.97;;;2.08;;
22234;SDS011;11286;45.596;5.284;2023-04-02T09:24:58;2.22;;;1.60;;
22234;SDS011;11286;45.596;5.284;2023-04-02T09:27:29;3.78;;;1.75;;
22234;SDS011;11286;45.596;5.284;2023-04-02T09:29:59;3.85;;;2.00;;
22234;SDS011;11286;45.596;5.284;2023-04-02T09:32:50;2.38;;;1.70;;
22234;SDS011;11286;45.596;5.284;2023-04-02T09:38:10;17.13;;;11.45;;
22234;SDS011;11286;45.596;5.284;2023-04-02T09:40:42;5.18;;;3.63;;
22234;SDS011;11286;45.596;5.284;2023-04-02T09:43:17;10.35;;;6.60;;
22234;SDS011;11286;45.596;5.284;2023-04-02T09:48:23;2.05;;;1.20;;
22234;SDS011;11286;45.596;5.284;2023-04-02T09:53:45;5.65;;;4.93;;
22234;SDS011;11286;45.596;5.284;2023-04-02T09:56:21;4.80;;;4.30;;
22234;SDS011;11286;45.596;5.284;2023-04-02T09:59:02;1.17;;;1.00;;
22234;SDS011;11286;45.596;5.284;2023-04-02T10:01:37;2.20;;;2.00;;
22234;SDS011;11286;45.596;5.284;2023-04-02T10:04:05;4.65;;;4.07;;
22234;SDS011;11286;45.596;5.284;2023-04-02T10:06:51;4.70;;;4.15;;
22234;SDS011;11286;45.596;5.284;2023-04-02T10:09:28;4.88;;;4.20;;
22234;SDS011;11286;45.596;5.284;2023-04-02T10:11:57;3.78;;;2.53;;
22234;SDS011;11286;45.596;5.284;2023-04-02T10:14:27;6.55;;;5.32;;
22234;SDS011;11286;45.596;5.284;2023-04-02T10:17:00;6.00;;;5.13;;
22234;SDS011;11286;45.596;5.284;2023-04-02T10:19:49;3.75;;;3.08;;
22234;SDS011;11286;45.596;5.284;2023-04-02T10:22:19;3.00;;;2.58;;
22234;SDS011;11286;45.596;5.284;2023-04-02T10:24:46;3.50;;;2.90;;
22234;SDS011;11286;45.596;5.284;2023-04-02T10:27:15;2.78;;;2.50;;
22234;SDS011;11286;45.596;5.284;2023-04-02T10:32:27;1.50;;;1.30;;
22234;SDS011;11286;45.596;5.284;2023-04-02T10:35:01;2.00;;;1.80;;
22234;SDS011;11286;45.596;5.284;2023-04-02T10:40:16;2.15;;;1.30;;
22234;SDS011;11286;45.596;5.284;2023-04-02T10:45:53;5.97;;;5.40;;
22234;SDS011;11286;45.596;5.284;2023-04-02T10:50:53;1.00;;;0.90;;
22234;SDS011;11286;45.596;5.284;2023-04-02T10:56:20;2.92;;;2.53;;
22234;SDS011;11286;45.596;5.284;2023-04-02T10:58:52;1.55;;;1.35;;
22234;SDS011;11286;45.596;5.284;2023-04-02T11:01:24;1.33;;;0.60;;
22234;SDS011;11286;45.596;5.284;2023-04-02T11:04:04;2.75;;;2.25;;
22234;SDS011;11286;45.596;5.284;2023-04-02T11:07:21;0.65;;;0.63;;
22234;SDS011;11286;45.596;5.284;2023-04-02T11:09:31;3.42;;;2.50;;
22234;SDS011;11286;45.596;5.284;2023-04-02T11:12:01;3.50;;;2.40;;
22234;SDS011;11286;45.596;5.284;2023-04-02T11:14:31;4.70;;;3.05;;
22234;SDS011;11286;45.596;5.284;2023-04-02T11:16:57;22.92;;;12.68;;
22234;SDS011;11286;45.596;5.284;2023-04-02T11:19:33;12.48;;;6.75;;
22234;SDS011;11286;45.596;5.284;2023-04-02T11:22:00;5.88;;;4.20;;
22234;SDS011;11286;45.596;5.284;2023-04-02T11:27:12;1.90;;;1.70;;
22234;SDS011;11286;45.596;5.284;2023-04-02T11:42:38;1.10;;;1.00;;
22234;SDS011;11286;45.596;5.284;2023-04-02T11:53:00;3.67;;;1.10;;
22234;SDS011;11286;45.596;5.284;2023-04-02T11:55:28;1.25;;;1.15;;
22234;SDS011;11286;45.596;5.284;2023-04-02T12:12:42;1.52;;;0.80;;
22234;SDS011;11286;45.596;5.284;2023-04-02T12:15:03;0.85;;;0.80;;
22234;SDS011;11286;45.596;5.284;2023-04-02T12:17:33;1.10;;;0.88;;
22234;SDS011;11286;45.596;5.284;2023-04-02T12:20:03;1.10;;;0.85;;
22234;SDS011;11286;45.596;5.284;2023-04-02T12:22:48;1.38;;;1.00;;
22234;SDS011;11286;45.596;5.284;2023-04-02T12:25:34;1.20;;;1.00;;
22234;SDS011;11286;45.596;5.284;2023-04-02T12:30:44;1.40;;;1.10;;
22234;SDS011;11286;45.596;5.284;2023-04-02T12:33:15;1.90;;;1.10;;
22234;SDS011;11286;45.596;5.284;2023-04-02T12:35:44;1.40;;;1.30;;
22234;SDS011;11286;45.596;5.284;2023-04-02T12:44:04;1.20;;;1.00;;
22234;SDS011;11286;45.596;5.284;2023-04-02T12:46:36;1.80;;;1.08;;
22234;SDS011;11286;45.596;5.284;2023-04-02T12:49:04;1.63;;;1.50;;
22234;SDS011;11286;45.596;5.284;2023-04-02T12:51:50;1.30;;;1.13;;
22234;SDS011;11286;45.596;5.284;2023-04-02T12:54:17;2.42;;;2.08;;
22234;SDS011;11286;45.596;5.284;2023-04-02T12:56:44;9.88;;;8.23;;
22234;SDS011;11286;45.596;5.284;2023-04-02T12:59:30;2.83;;;1.98;;
22234;SDS011;11286;45.596;5.284;2023-04-02T13:02:00;2.50;;;2.28;;
22234;SDS011;11286;45.596;5.284;2023-04-02T13:04:53;2.92;;;1.90;;
22234;SDS011;11286;45.596;5.284;2023-04-02T13:07:21;2.75;;;1.67;;
22234;SDS011;11286;45.596;5.284;2023-04-02T13:09:53;2.22;;;2.03;;
22234;SDS011;11286;45.596;5.284;2023-04-02T13:14:56;1.65;;;1.40;;
22234;SDS011;11286;45.596;5.284;2023-04-02T13:23:00;2.80;;;2.15;;
22234;SDS011;11286;45.596;5.284;2023-04-02T13:25:45;1.52;;;1.40;;
22234;SDS011;11286;45.596;5.284;2023-04-02T13:28:10;3.22;;;1.60;;
22234;SDS011;11286;45.596;5.284;2023-04-02T13:30:36;1.55;;;1.30;;
22234;SDS011;11286;45.596;5.284;2023-04-02T13:33:02;1.55;;;1.23;;
22234;SDS011;11286;45.596;5.284;2023-04-02T13:35:27;1.90;;;1.77;;
22234;SDS011;11286;45.596;5.284;2023-04-02T13:37:53;3.30;;;2.80;;
22234;SDS011;11286;45.596;5.284;2023-04-02T13:40:18;2.33;;;2.00;;
22234;SDS011;11286;45.596;5.284;2023-04-02T13:42:44;2.42;;;1.85;;
22234;SDS011;11286;45.596;5.284;2023-04-02T13:45:27;1.67;;;1.55;;
22234;SDS011;11286;45.596;5.284;2023-04-02T13:47:56;1.73;;;1.35;;
22234;SDS011;11286;45.596;5.284;2023-04-02T13:50:25;1.40;;;1.30;;
22234;SDS011;11286;45.596;5.284;2023-04-02T13:52:52;1.30;;;0.95;;
22234;SDS011;11286;45.596;5.284;2023-04-02T13:55:22;2.30;;;1.08;;
22234;SDS011;11286;45.596;5.284;2023-04-02T13:57:49;1.02;;;1.00;;
22234;SDS011;11286;45.596;5.284;2023-04-02T14:00:15;1.77;;;1.23;;
22234;SDS011;11286;45.596;5.284;2023-04-02T14:02:43;1.55;;;1.40;;
22234;SDS011;11286;45.596;5.284;2023-04-02T14:05:30;1.48;;;1.38;;
22234;SDS011;11286;45.596;5.284;2023-04-02T14:13:52;1.70;;;1.60;;
22234;SDS011;11286;45.596;5.284;2023-04-02T14:19:23;2.10;;;1.65;;
22234;SDS011;11286;45.596;5.284;2023-04-02T14:22:10;2.38;;;1.80;;
22234;SDS011;11286;45.596;5.284;2023-04-02T14:24:56;1.45;;;0.90;;
22234;SDS011;11286;45.596;5.284;2023-04-02T14:33:34;1.20;;;1.00;;
22234;SDS011;11286;45.596;5.284;2023-04-02T14:42:14;1.20;;;1.10;;
22234;SDS011;11286;45.596;5.284;2023-04-02T14:47:40;1.00;;;0.90;;
22234;SDS011;11286;45.596;5.284;2023-04-02T14:50:11;1.10;;;1.00;;
22234;SDS011;11286;45.596;5.284;2023-04-02T14:52:41;1.38;;;1.20;;
22234;SDS011;11286;45.596;5.284;2023-04-02T14:57:48;1.20;;;1.10;;
22234;SDS011;11286;45.596;5.284;2023-04-02T15:03:12;1.33;;;1.20;;
22234;SDS011;11286;45.596;5.284;2023-04-02T15:06:01;1.00;;;0.90;;
22234;SDS011;11286;45.596;5.284;2023-04-02T15:08:37;1.65;;;1.00;;
22234;SDS011;11286;45.596;5.284;2023-04-02T15:13:53;1.27;;;1.00;;
22234;SDS011;11286;45.596;5.284;2023-04-02T15:16:27;0.75;;;0.75;;
22234;SDS011;11286;45.596;5.284;2023-04-02T15:18:56;0.98;;;0.95;;
22234;SDS011;11286;45.596;5.284;2023-04-02T15:26:33;1.42;;;1.00;;
22234;SDS011;11286;45.596;5.284;2023-04-02T15:29:37;1.38;;;1.10;;
22234;SDS011;11286;45.596;5.284;2023-04-02T15:35:00;1.10;;;1.00;;
22234;SDS011;11286;45.596;5.284;2023-04-02T15:37:34;1.05;;;1.00;;
22234;SDS011;11286;45.596;5.284;2023-04-02T15:40:22;1.80;;;1.00;;
22234;SDS011;11286;45.596;5.284;2023-04-02T15:45:47;2.30;;;2.20;;
22234;SDS011;11286;45.596;5.284;2023-04-02T15:51:38;2.20;;;2.00;;
22234;SDS011;11286;45.596;5.284;2023-04-02T15:57:03;1.30;;;1.20;;
22234;SDS011;11286;45.596;5.284;2023-04-02T16:03:23;1.50;;;1.00;;
22234;SDS011;11286;45.596;5.284;2023-04-02T16:10:47;1.13;;;0.80;;
22234;SDS011;11286;45.596;5.284;2023-04-02T16:15:45;1.60;;;1.10;;
22234;SDS011;11286;45.596;5.284;2023-04-02T16:18:41;0.90;;;0.90;;
22234;SDS011;11286;45.596;5.284;2023-04-02T16:21:10;2.25;;;0.80;;
22234;SDS011;11286;45.596;5.284;2023-04-02T16:23:43;0.63;;;0.63;;
22234;SDS011;11286;45.596;5.284;2023-04-02T16:31:56;0.90;;;0.90;;
22234;SDS011;11286;45.596;5.284;2023-04-02T16:42:36;1.10;;;1.00;;
22234;SDS011;11286;45.596;5.284;2023-04-02T16:45:36;1.00;;;1.00;;
22234;SDS011;11286;45.596;5.284;2023-04-02T16:53:25;1.98;;;1.30;;
22234;SDS011;11286;45.596;5.284;2023-04-02T16:58:58;1.23;;;1.13;;
22234;SDS011;11286;45.596;5.284;2023-04-02T17:01:53;1.40;;;1.30;;
22234;SDS011;11286;45.596;5.284;2023-04-02T17:05:04;1.30;;;1.10;;
22234;SDS011;11286;45.596;5.284;2023-04-02T17:07:56;1.60;;;1.23;;
22234;SDS011;11286;45.596;5.284;2023-04-02T17:10:58;1.95;;;1.50;;
22234;SDS011;11286;45.596;5.284;2023-04-02T17:13:39;2.17;;;1.27;;
22234;SDS011;11286;45.596;5.284;2023-04-02T17:18:36;2.60;;;1.23;;
22234;SDS011;11286;45.596;5.284;2023-04-02T17:21:05;2.58;;;1.42;;
22234;SDS011;11286;45.596;5.284;2023-04-02T17:23:40;2.03;;;1.23;;
22234;SDS011;11286;45.596;5.284;2023-04-02T17:26:11;1.30;;;1.20;;
22234;SDS011;11286;45.596;5.284;2023-04-02T17:28:38;1.50;;;1.40;;
22234;SDS011;11286;45.596;5.284;2023-04-02T17:31:16;1.63;;;1.30;;
22234;SDS011;11286;45.596;5.284;2023-04-02T17:33:45;1.35;;;1.23;;
22234;SDS011;11286;45.596;5.284;2023-04-02T17:38:58;1.70;;;1.60;;
22234;SDS011;11286;45.596;5.284;2023-04-02T17:41:31;2.20;;;2.00;;
22234;SDS011;11286;45.596;5.284;2023-04-02T17:44:33;1.40;;;1.30;;
22234;SDS011;11286;45.596;5.284;2023-04-02T17:52:40;1.65;;;1.30;;
22234;SDS011;11286;45.596;5.284;2023-04-02T17:58:07;1.45;;;1.30;;
22234;SDS011;11286;45.596;5.284;2023-04-02T18:06:11;2.20;;;1.50;;
22234;SDS011;11286;45.596;5.284;2023-04-02T18:11:58;1.52;;;1.42;;
22234;SDS011;11286;45.596;5.284;2023-04-02T18:14:50;2.28;;;1.10;;
22234;SDS011;11286;45.596;5.284;2023-04-02T18:17:34;1.30;;;1.20;;
22234;SDS011;11286;45.596;5.284;2023-04-02T18:20:22;1.00;;;0.90;;
22234;SDS011;11286;45.596;5.284;2023-04-02T18:29:03;1.77;;;1.10;;
22234;SDS011;11286;45.596;5.284;2023-04-02T18:31:45;1.23;;;1.13;;
22234;SDS011;11286;45.596;5.284;2023-04-02T18:48:41;2.00;;;1.80;;
22234;SDS011;11286;45.596;5.284;2023-04-02T18:51:13;1.90;;;1.70;;
22234;SDS011;11286;45.596;5.284;2023-04-02T18:53:42;2.33;;;2.00;;
22234;SDS011;11286;45.596;5.284;2023-04-02T18:56:10;2.15;;;1.80;;
22234;SDS011;11286;45.596;5.284;2023-04-02T19:01:21;2.03;;;1.40;;
22234;SDS011;11286;45.596;5.284;2023-04-02T19:03:53;2.25;;;2.05;;
22234;SDS011;11286;45.596;5.284;2023-04-02T19:06:43;2.80;;;1.98;;
22234;SDS011;11286;45.596;5.284;2023-04-02T19:09:13;2.17;;;1.73;;
22234;SDS011;11286;45.596;5.284;2023-04-02T19:11:42;2.50;;;2.00;;
22234;SDS011;11286;45.596;5.284;2023-04-02T19:22:06;2.83;;;1.90;;
22234;SDS011;11286;45.596;5.284;2023-04-02T19:25:00;2.03;;;1.83;;
22234;SDS011;11286;45.596;5.284;2023-04-02T19:30:51;1.50;;;1.40;;
22234;SDS011;11286;45.596;5.284;2023-04-02T19:35:56;1.15;;;1.05;;
22234;SDS011;11286;45.596;5.284;2023-04-02T19:41:10;1.83;;;1.48;;
22234;SDS011;11286;45.596;5.284;2023-04-02T19:43:43;1.42;;;1.33;;
22234;SDS011;11286;45.596;5.284;2023-04-02T19:46:09;1.80;;;1.45;;
22234;SDS011;11286;45.596;5.284;2023-04-02T19:48:50;2.78;;;1.70;;
22234;SDS011;11286;45.596;5.284;2023-04-02T19:51:32;2.17;;;1.70;;
22234;SDS011;11286;45.596;5.284;2023-04-02T19:53:58;2.10;;;1.75;;
22234;SDS011;11286;45.596;5.284;2023-04-02T19:56:24;2.60;;;1.80;;
22234;SDS011;11286;45.596;5.284;2023-04-02T19:58:51;1.90;;;1.75;;
22234;SDS011;11286;45.596;5.284;2023-04-02T20:01:17;2.40;;;1.90;;
22234;SDS011;11286;45.596;5.284;2023-04-02T20:03:42;2.85;;;2.47;;
22234;SDS011;11286;45.596;5.284;2023-04-02T20:06:08;2.72;;;1.90;;
22234;SDS011;11286;45.596;5.284;2023-04-02T20:08:34;2.35;;;1.95;;
22234;SDS011;11286;45.596;5.284;2023-04-02T20:11:00;2.05;;;1.73;;
22234;SDS011;11286;45.596;5.284;2023-04-02T20:13:26;3.08;;;1.98;;
22234;SDS011;11286;45.596;5.284;2023-04-02T20:15:52;2.13;;;1.80;;
22234;SDS011;11286;45.596;5.284;2023-04-02T20:18:18;1.73;;;1.60;;
22234;SDS011;11286;45.596;5.284;2023-04-02T20:20:47;1.90;;;1.55;;
22234;SDS011;11286;45.596;5.284;2023-04-02T20:23:14;1.95;;;1.75;;
22234;SDS011;11286;45.596;5.284;2023-04-02T20:25:44;2.55;;;1.77;;
22234;SDS011;11286;45.596;5.284;2023-04-02T20:28:11;1.95;;;1.75;;
22234;SDS011;11286;45.596;5.284;2023-04-02T20:30:37;2.63;;;1.88;;
22234;SDS011;11286;45.596;5.284;2023-04-02T20:33:02;2.28;;;1.80;;
22234;SDS011;11286;45.596;5.284;2023-04-02T20:35:28;1.83;;;1.50;;